createdAt,value
2018-01-07T00:00:26.564Z,2.87
2018-01-07T00:02:53.813Z,4.10
2018-01-07T00:05:21.064Z,3.20
2018-01-07T00:07:48.384Z,4.10
2018-01-07T00:10:15.633Z,8.33
2018-01-07T00:12:42.900Z,2.80
2018-01-07T00:15:10.152Z,8.53
2018-01-07T00:17:37.426Z,6.07
2018-01-07T00:20:04.673Z,4.47
2018-01-07T00:22:31.934Z,5.43
2018-01-07T00:24:59.184Z,4.23
2018-01-07T00:27:26.449Z,3.80
2018-01-07T00:29:53.702Z,4.40
2018-01-07T00:32:21.025Z,3.37
2018-01-07T00:34:48.280Z,4.97
2018-01-07T00:37:15.633Z,5.17
2018-01-07T00:39:42.989Z,5.97
2018-01-07T00:42:10.251Z,6.23
2018-01-07T00:44:37.600Z,5.20
2018-01-07T00:47:04.872Z,5.03
2018-01-07T00:49:32.204Z,5.60
2018-01-07T00:51:59.476Z,4.10
2018-01-07T00:54:26.729Z,5.60
2018-01-07T00:56:53.977Z,4.00
2018-01-07T00:59:21.243Z,4.43
2018-01-07T01:01:48.577Z,4.63
2018-01-07T01:04:15.848Z,10.43
2018-01-07T01:06:43.184Z,4.93
2018-01-07T01:09:10.540Z,4.70
2018-01-07T01:11:37.788Z,4.70
2018-01-07T01:14:05.060Z,4.20
2018-01-07T01:16:32.313Z,3.83
2018-01-07T01:18:59.577Z,3.40
2018-01-07T01:21:26.825Z,3.20
2018-01-07T01:23:54.162Z,5.33
2018-01-07T01:26:21.419Z,5.77
2018-01-07T01:28:48.676Z,4.20
2018-01-07T01:31:15.932Z,3.47
2018-01-07T01:33:43.207Z,3.30
2018-01-07T01:36:10.448Z,3.27
2018-01-07T01:38:37.728Z,3.67
2018-01-07T01:41:04.981Z,3.30
2018-01-07T01:43:32.229Z,3.50
2018-01-07T01:45:59.497Z,5.70
2018-01-07T01:48:26.740Z,3.90
2018-01-07T01:50:54.012Z,3.93
2018-01-07T01:53:21.312Z,3.70
2018-01-07T01:55:49.276Z,4.77
2018-01-07T01:58:16.524Z,3.73
2018-01-07T02:00:43.789Z,7.90
2018-01-07T02:03:11.040Z,4.67
2018-01-07T02:05:38.308Z,3.60
2018-01-07T02:08:05.564Z,3.33
2018-01-07T02:10:32.833Z,5.40
2018-01-07T02:13:00.144Z,3.67
2018-01-07T02:15:27.504Z,2.80
2018-01-07T02:17:54.760Z,3.23
2018-01-07T02:20:22.008Z,3.60
2018-01-07T02:22:49.277Z,2.90
2018-01-07T02:25:16.633Z,7.10
2018-01-07T02:27:43.898Z,3.57
2018-01-07T02:30:11.153Z,3.53
2018-01-07T02:32:38.414Z,3.00
2018-01-07T02:35:05.666Z,2.60
2018-01-07T02:37:32.924Z,2.50
2018-01-07T02:40:00.173Z,5.13
2018-01-07T02:42:27.451Z,2.63
2018-01-07T02:44:54.692Z,4.23
2018-01-07T02:47:21.962Z,4.33
2018-01-07T02:49:49.208Z,3.40
2018-01-07T02:52:16.477Z,2.37
2018-01-07T02:54:43.736Z,3.27
2018-01-07T02:57:11.000Z,2.40
2018-01-07T02:59:38.248Z,2.40
2018-01-07T03:02:05.508Z,3.20
2018-01-07T03:04:32.756Z,2.27
2018-01-07T03:07:00.030Z,1.70
2018-01-07T03:09:27.281Z,2.03
2018-01-07T03:11:55.532Z,2.00
2018-01-07T03:14:22.796Z,2.53
2018-01-07T03:16:50.044Z,2.60
2018-01-07T03:19:17.312Z,3.10
2018-01-07T03:21:44.566Z,2.23
2018-01-07T03:24:11.829Z,2.63
2018-01-07T03:26:39.191Z,3.00
2018-01-07T03:29:06.463Z,5.50
2018-01-07T03:31:33.707Z,2.30
2018-01-07T03:34:00.972Z,2.30
2018-01-07T03:36:28.219Z,2.30
2018-01-07T03:38:55.485Z,2.60
2018-01-07T03:41:22.736Z,2.70
2018-01-07T03:43:50.000Z,4.37
2018-01-07T03:46:17.247Z,2.00
2018-01-07T03:48:44.573Z,2.80
2018-01-07T03:51:11.816Z,3.63
2018-01-07T03:53:39.084Z,2.70
2018-01-07T03:56:06.332Z,3.53
2018-01-07T03:58:33.610Z,3.23
2018-01-07T04:01:00.856Z,2.60
2018-01-07T04:03:28.108Z,3.90
2018-01-07T04:05:55.377Z,1.80
2018-01-07T04:08:22.625Z,1.70
2018-01-07T04:10:49.896Z,2.10
2018-01-07T04:13:17.143Z,1.80
2018-01-07T04:15:44.409Z,2.40
2018-01-07T04:18:11.657Z,2.80
2018-01-07T04:20:38.929Z,2.93
2018-01-07T04:23:06.183Z,1.90
2018-01-07T04:25:33.449Z,1.77
2018-01-07T04:28:00.701Z,4.60
2018-01-07T04:30:27.972Z,2.47
2018-01-07T04:32:55.214Z,2.30
2018-01-07T04:35:22.479Z,2.17
2018-01-07T04:37:49.734Z,2.20
2018-01-07T04:40:17.092Z,1.87
2018-01-07T04:42:44.339Z,2.03
2018-01-07T04:45:11.700Z,2.10
2018-01-07T04:47:38.946Z,2.73
2018-01-07T04:50:06.216Z,2.80
2018-01-07T04:52:33.467Z,2.30
2018-01-07T04:55:00.741Z,2.30
2018-01-07T04:57:28.069Z,1.90
2018-01-07T04:59:55.322Z,2.53
2018-01-07T05:02:22.611Z,2.17
2018-01-07T05:04:49.928Z,1.53
2018-01-07T05:07:17.192Z,2.10
2018-01-07T05:09:44.544Z,2.73
2018-01-07T05:12:11.900Z,1.93
2018-01-07T05:14:39.157Z,1.60
2018-01-07T05:17:06.533Z,1.83
2018-01-07T05:19:33.781Z,1.50
2018-01-07T05:22:01.116Z,1.53
2018-01-07T05:24:28.364Z,1.70
2018-01-07T05:26:55.628Z,1.60
2018-01-07T05:29:22.980Z,1.60
2018-01-07T05:31:50.328Z,1.63
2018-01-07T05:34:17.584Z,1.43
2018-01-07T05:36:44.847Z,1.50
2018-01-07T05:39:12.200Z,1.77
2018-01-07T05:41:39.476Z,7.60
2018-01-07T05:44:06.718Z,1.50
2018-01-07T05:46:33.997Z,1.40
2018-01-07T05:49:01.250Z,1.37
2018-01-07T05:51:28.565Z,1.50
2018-01-07T05:53:55.896Z,2.13
2018-01-07T05:56:23.151Z,1.20
2018-01-07T05:58:50.416Z,1.43
2018-01-07T06:01:17.668Z,1.47
2018-01-07T06:03:44.932Z,1.30
2018-01-07T06:06:12.188Z,1.37
2018-01-07T06:08:39.456Z,1.17
2018-01-07T06:11:06.713Z,1.43
2018-01-07T06:13:33.976Z,1.40
2018-01-07T06:16:01.306Z,3.20
2018-01-07T06:18:28.568Z,1.70
2018-01-07T06:20:55.913Z,1.40
2018-01-07T06:23:23.266Z,2.20
2018-01-07T06:25:50.516Z,1.60
2018-01-07T06:28:17.786Z,1.63
2018-01-07T06:30:45.033Z,1.30
2018-01-07T06:33:12.296Z,2.13
2018-01-07T06:35:39.548Z,1.80
2018-01-07T06:38:06.818Z,1.20
2018-01-07T06:40:34.060Z,1.63
2018-01-07T06:43:01.313Z,1.57
2018-01-07T06:45:28.576Z,1.37
2018-01-07T06:47:55.828Z,2.43
2018-01-07T06:50:23.152Z,1.60
2018-01-07T06:52:50.409Z,1.47
2018-01-07T06:55:17.673Z,1.20
2018-01-07T06:57:45.012Z,1.73
2018-01-07T07:00:12.289Z,1.40
2018-01-07T07:02:39.532Z,1.40
2018-01-07T07:05:06.876Z,1.63
2018-01-07T07:07:34.689Z,1.20
2018-01-07T07:10:02.071Z,3.00
2018-01-07T07:12:29.344Z,1.37
2018-01-07T07:14:56.588Z,1.30
2018-01-07T07:17:24.222Z,1.50
2018-01-07T07:19:51.457Z,1.30
2018-01-07T07:22:18.783Z,1.13
2018-01-07T07:24:46.134Z,0.97
2018-01-07T07:27:13.498Z,1.97
2018-01-07T07:29:40.740Z,1.20
2018-01-07T07:32:08.017Z,1.33
2018-01-07T07:34:35.264Z,2.10
2018-01-07T07:37:02.528Z,1.73
2018-01-07T07:39:29.776Z,1.20
2018-01-07T07:41:57.070Z,1.07
2018-01-07T07:44:24.349Z,1.00
2018-01-07T07:46:51.597Z,1.07
2018-01-07T07:49:18.850Z,1.20
2018-01-07T07:51:46.125Z,1.03
2018-01-07T07:54:13.377Z,0.90
2018-01-07T07:56:40.741Z,1.37
2018-01-07T07:59:08.127Z,1.13
2018-01-07T08:01:35.376Z,1.10
2018-01-07T08:04:02.726Z,1.30
2018-01-07T08:06:30.063Z,0.77
2018-01-07T08:08:57.334Z,1.20
2018-01-07T08:11:24.592Z,1.50
2018-01-07T08:13:51.871Z,0.77
2018-01-07T08:16:19.112Z,1.00
2018-01-07T08:18:46.406Z,0.80
2018-01-07T08:21:13.687Z,1.10
2018-01-07T08:23:40.929Z,1.10
2018-01-07T08:26:08.311Z,1.30
2018-01-07T08:28:35.560Z,0.80
2018-01-07T08:31:02.857Z,2.40
2018-01-07T08:33:30.152Z,0.87
2018-01-07T08:35:57.400Z,1.00
2018-01-07T08:38:24.686Z,1.00
2018-01-07T08:40:51.960Z,0.90
2018-01-07T08:43:19.213Z,0.80
2018-01-07T08:45:46.467Z,0.90
2018-01-07T08:48:13.748Z,0.80
2018-01-07T08:50:41.004Z,3.63
2018-01-07T08:53:08.250Z,0.97
2018-01-07T08:55:35.520Z,1.00
2018-01-07T08:58:02.769Z,1.30
2018-01-07T09:00:30.036Z,2.50
2018-01-07T09:02:57.289Z,1.10
2018-01-07T09:05:24.569Z,0.73
2018-01-07T09:07:51.925Z,0.97
2018-01-07T09:10:19.166Z,2.80
2018-01-07T09:12:46.460Z,1.27
2018-01-07T09:15:13.740Z,1.50
2018-01-07T09:17:41.017Z,0.90
2018-01-07T09:20:08.372Z,0.90
2018-01-07T09:22:35.942Z,1.00
2018-01-07T09:25:03.238Z,0.90
2018-01-07T09:27:30.468Z,0.70
2018-01-07T09:29:57.720Z,1.27
2018-01-07T09:32:24.997Z,1.33
2018-01-07T09:34:52.299Z,3.03
2018-01-07T09:37:19.557Z,0.70
2018-01-07T09:39:46.839Z,0.97
2018-01-07T09:42:14.092Z,1.23
2018-01-07T09:44:41.419Z,1.47
2018-01-07T09:47:08.700Z,1.10
2018-01-07T09:49:36.039Z,1.50
2018-01-07T09:52:03.282Z,1.20
2018-01-07T09:54:30.524Z,2.13
2018-01-07T09:56:57.993Z,2.30
2018-01-07T09:59:25.247Z,1.43
2018-01-07T10:01:52.496Z,1.60
2018-01-07T10:04:19.857Z,1.20
2018-01-07T15:32:50.347Z,8.60
2018-01-07T19:35:55.600Z,15.37
2018-01-07T19:38:22.888Z,16.50
2018-01-07T19:40:50.156Z,16.87
2018-01-07T19:43:17.445Z,14.53
2018-01-07T19:45:44.848Z,14.20
2018-01-07T19:48:12.117Z,15.33
2018-01-07T19:50:39.368Z,15.10
2018-01-07T19:53:06.659Z,13.17
2018-01-07T19:55:33.916Z,13.63
2018-01-07T19:58:01.199Z,15.27
2018-01-07T20:00:28.492Z,16.03
2018-01-07T20:02:55.776Z,10.63
2018-01-07T20:05:23.041Z,15.20
2018-01-07T20:07:50.331Z,14.57
2018-01-07T20:10:17.597Z,17.33
2018-01-07T20:12:44.898Z,13.87
2018-01-07T20:15:12.280Z,18.53
2018-01-07T20:17:39.540Z,14.60
2018-01-07T20:20:06.830Z,14.73
2018-01-07T20:22:34.126Z,15.10
2018-01-07T20:25:01.388Z,18.70
2018-01-07T20:27:28.652Z,18.73
2018-01-07T20:29:55.944Z,20.70
2018-01-07T20:32:23.196Z,15.60
2018-01-07T20:34:50.500Z,18.07
2018-01-07T20:37:17.776Z,15.13
2018-01-07T20:39:45.087Z,20.40
2018-01-07T20:42:12.353Z,16.77
2018-01-07T20:44:40.310Z,18.97
2018-01-07T20:47:07.628Z,17.30
2018-01-07T20:49:34.891Z,15.70
2018-01-07T20:52:02.164Z,18.23
2018-01-07T20:54:29.456Z,26.17
2018-01-07T20:56:56.980Z,18.30
2018-01-07T20:59:24.249Z,18.93
2018-01-07T21:01:51.540Z,21.20
2018-01-07T21:04:18.853Z,17.33
2018-01-07T21:06:46.112Z,24.13
2018-01-07T21:09:13.377Z,17.50
2018-01-07T21:11:40.656Z,14.57
2018-01-07T21:14:07.944Z,14.40
2018-01-07T21:16:35.245Z,16.17
2018-01-07T21:19:02.518Z,14.33
2018-01-07T21:21:29.776Z,12.30
2018-01-07T21:23:57.074Z,13.20
2018-01-07T21:26:24.341Z,12.87
2018-01-07T21:28:51.601Z,14.17
2018-01-07T21:31:18.905Z,14.27
2018-01-07T21:33:46.171Z,16.83
2018-01-07T21:36:13.433Z,14.57
2018-01-07T21:38:40.717Z,14.83
2018-01-07T21:41:07.985Z,15.13
2018-01-07T21:43:35.272Z,16.70
2018-01-07T21:46:02.539Z,16.60
2018-01-07T21:48:29.824Z,14.33
2018-01-07T21:50:57.080Z,13.87
2018-01-07T21:53:24.374Z,15.40
2018-01-07T21:55:51.660Z,15.70
2018-01-07T21:58:18.957Z,15.90
2018-01-07T22:00:52.146Z,13.63
2018-01-07T22:03:25.386Z,14.60
2018-01-07T22:05:54.380Z,17.83
2018-01-07T22:08:21.676Z,17.33
2018-01-07T22:10:48.940Z,16.40
2018-01-07T22:13:16.208Z,15.03
2018-01-07T22:15:43.496Z,15.50
2018-01-07T22:18:10.764Z,13.67
2018-01-07T22:20:38.065Z,15.30
2018-01-07T22:23:05.329Z,18.53
2018-01-07T22:25:32.593Z,15.00
2018-01-07T22:27:59.885Z,15.60
2018-01-07T22:30:27.174Z,13.80
2018-01-07T22:32:54.447Z,15.80
2018-01-07T22:35:21.737Z,16.43
2018-01-07T22:37:49.002Z,20.83
2018-01-07T22:40:16.292Z,22.27
2018-01-07T22:42:43.580Z,15.20
2018-01-07T22:45:10.839Z,17.80
2018-01-07T22:47:43.824Z,15.07
2018-01-07T22:50:11.093Z,13.57
2018-01-07T22:52:38.390Z,14.73
2018-01-07T22:55:05.656Z,13.20
2018-01-07T22:57:32.918Z,14.83
2018-01-07T23:00:00.205Z,13.60
2018-01-07T23:02:27.535Z,12.93
2018-01-07T23:04:54.759Z,12.40
2018-01-07T23:07:22.041Z,10.93
2018-01-07T23:09:49.308Z,13.63
2018-01-07T23:12:16.601Z,11.10
2018-01-07T23:14:43.852Z,10.40
2018-01-07T23:17:11.109Z,10.97
2018-01-07T23:19:38.402Z,12.10
2018-01-07T23:22:05.663Z,13.20
2018-01-07T23:24:32.924Z,13.70
2018-01-07T23:27:00.204Z,13.37
2018-01-07T23:29:27.473Z,12.67
2018-01-07T23:31:54.754Z,13.90
2018-01-07T23:34:22.068Z,11.10
2018-01-07T23:36:49.323Z,12.47
2018-01-07T23:39:16.612Z,11.50
2018-01-07T23:41:43.897Z,11.70
2018-01-07T23:44:11.204Z,10.23
2018-01-07T23:46:38.482Z,9.90
2018-01-07T23:49:05.756Z,11.03
2018-01-07T23:51:33.012Z,11.90
2018-01-07T23:54:00.337Z,9.23
2018-01-07T23:56:27.596Z,10.43
2018-01-07T23:58:54.867Z,10.40
